Flight Number: EUR3006 Duration: 11:00
Departure: Frankfurt Airport (EDDF) at 08:00 Distance: 5335 Nm
Arrival: Vancouver Airport (CYVR) at 19:00 Equipment: B747

Weather Information
Frankfurt / M-Flughafen, Germany (EDDF) 50-03N 008-36E 113M Nov 18, 2017 - 06:50 AM EST / 2017.11.18 1150 UTC
Wind: from the WSW (250 degrees) at 16 MPH (14 KT):0
Visibility: greater than 7 mile(s):0
Sky conditions: mostly cloudy Temperature: 42 F (6 C) Dew Point: 30 F (-1 C) Relative Humidity: 60% Pressure (altimeter): 30.15 in. Hg (1021 hPa)
ob: EDDF 181150Z 25014KT 9999 FEW020 BKN036 06/M01 Q1021 NOSIG cycle: 12
Sunrise: 06:48 Sunset: 15:33 (UTC)

Vancouver International Air-Port, B. C., Canada (CYVR) 49-11N 123-10W 2M Nov 18, 2017 - 06:00 AM EST / 2017.11.18 1100 UTC
Wind: from the E (090 degrees) at 6 MPH (5 KT):0
Visibility: 20 mile(s):0
Sky conditions: overcast Temperature: 44 F (7 C) Dew Point: 41 F (5 C) Relative Humidity: 87% Pressure (altimeter): 30.26 in. Hg (1024 hPa)
ob: CYVR 181100Z 09005KT 20SM FEW032 BKN045 OVC059 07/05 A3026 RMK SC2SC5SC1 SLP247 cycle: 11
Sunrise: 15:33 Sunset: 00:22 (UTC)

TAF:2017/11/18 12:42 TAF CYVR 181138Z 1812/1918 09006KT P6SM SCT015 OVC040 TEMPO 1812/1822 5SM -SHRA BR FEW008 BKN015 OVC040 FM182200 12012KT P6SM FEW015 BKN040 TEMPO 1822/1905 P6SM -RA FM190500 10010KT 4SM -RA BR SCT008 OVC015 RMK NXT FCST BY 181500Z

Previous Pireps for this route
Date Aircraft Flight time Fuel used Landing rate On time
2013-06-03A330-20011.03141838-338Charter
2013-07-08B77711.00179441-261Charter
2016-12-29B74711.032045590Yes
(pireps marked green are flown by you)

Route map